Time;durP1;ratioP1;P1;durP2;ratioP2;P2;SDS_P1;SDS_P2;PMS_P1;PMS_P2;Temp;Humidity;BMP_temperature;BMP_pressure;BME280_temperature;BME280_humidity;BME280_pressure;Samples;Min_cycle;Max_cycle;Signal;HPM_P1;HPM_P2
2022/07/09 00:02:09;;;;;;;12.98;11.68;;;18.60;75.10;;;;;;4998413;28;20038;-72
2022/07/09 00:04:35;;;;;;;13.93;11.80;;;18.60;75.30;;;;;;4994745;28;20065;-72
2022/07/09 00:07:00;;;;;;;14.82;12.55;;;18.60;75.50;;;;;;5006325;28;20034;-72
2022/07/09 00:09:26;;;;;;;14.85;13.05;;;18.60;75.80;;;;;;5005766;28;20060;-72
2022/07/09 00:11:52;;;;;;;16.70;14.70;;;18.60;76.00;;;;;;5001825;28;20087;-72
2022/07/09 00:14:18;;;;;;;16.98;13.55;;;18.40;76.20;;;;;;5006825;28;20866;-72
2022/07/09 00:16:44;;;;;;;16.17;14.57;;;18.40;76.60;;;;;;5002926;28;20042;-73
2022/07/09 00:19:09;;;;;;;15.75;14.15;;;18.30;76.80;;;;;;4990067;28;20034;-72
2022/07/09 00:21:35;;;;;;;16.02;14.35;;;18.20;76.90;;;;;;5009773;28;20041;-73
2022/07/09 00:24:01;;;;;;;15.48;13.85;;;18.20;77.00;;;;;;5009778;28;20473;-73
2022/07/09 00:26:26;;;;;;;20.55;15.10;;;18.10;77.10;;;;;;5007536;28;20402;-72
2022/07/09 00:28:52;;;;;;;16.10;14.45;;;18.10;77.00;;;;;;5003000;28;20511;-72
2022/07/09 00:31:18;;;;;;;17.17;15.57;;;18.10;77.20;;;;;;4997491;28;20494;-72
2022/07/09 00:33:43;;;;;;;18.63;16.73;;;18.10;77.20;;;;;;5008814;28;20038;-72
2022/07/09 00:36:09;;;;;;;17.67;15.95;;;18.00;77.20;;;;;;5007426;28;20498;-72
2022/07/09 00:38:35;;;;;;;20.58;18.63;;;18.00;77.20;;;;;;5006802;28;20100;-72
2022/07/09 00:41:01;;;;;;;21.08;18.98;;;18.00;77.10;;;;;;4997956;28;20030;-73
2022/07/09 00:43:27;;;;;;;21.42;19.27;;;17.90;77.00;;;;;;4991185;28;20466;-72
2022/07/09 00:45:52;;;;;;;19.55;17.73;;;17.80;77.40;;;;;;5006126;28;20093;-72
2022/07/09 00:48:19;;;;;;;18.73;16.88;;;17.80;77.30;;;;;;5004721;28;20166;-72
2022/07/09 00:50:46;;;;;;;19.52;17.63;;;17.80;77.30;;;;;;5006921;28;20109;-72
2022/07/09 00:53:16;;;;;;;21.83;19.83;;;17.70;77.80;;;;;;4997853;28;20502;-72
2022/07/09 00:55:44;;;;;;;22.15;19.70;;;17.70;77.60;;;;;;4998387;28;20038;-72
2022/07/09 00:58:12;;;;;;;22.48;19.92;;;17.80;77.60;;;;;;5007919;28;20136;-73
2022/07/09 01:00:38;;;;;;;22.65;20.45;;;17.80;77.50;;;;;;5005676;28;20401;-72
2022/07/09 01:03:03;;;;;;;22.05;19.77;;;17.80;77.50;;;;;;4996187;28;20057;-72
2022/07/09 01:05:35;;;;;;;23.08;20.88;;;17.80;77.50;;;;;;5008807;28;20030;-72
2022/07/09 01:08:04;;;;;;;22.55;20.35;;;17.80;77.40;;;;;;5002333;28;20084;-74
2022/07/09 01:10:31;;;;;;;23.20;20.90;;;17.70;77.50;;;;;;5009892;28;20121;-73
2022/07/09 01:12:57;;;;;;;26.20;23.60;;;17.70;77.60;;;;;;4999781;28;20034;-72
2022/07/09 01:15:23;;;;;;;24.27;21.88;;;17.60;77.70;;;;;;4998697;28;20045;-72
2022/07/09 01:17:51;;;;;;;23.80;21.50;;;17.60;78.10;;;;;;5002865;28;20163;-72
2022/07/09 01:20:23;;;;;;;24.75;22.55;;;17.50;78.30;;;;;;5000350;28;20033;-72
2022/07/09 01:22:49;;;;;;;22.52;20.40;;;17.60;78.30;;;;;;4997941;28;20040;-72
2022/07/09 01:25:16;;;;;;;23.67;21.48;;;17.60;78.10;;;;;;4992212;28;20066;-72
2022/07/09 01:27:42;;;;;;;23.73;21.38;;;17.60;78.00;;;;;;4996036;28;20041;-72
2022/07/09 01:30:08;;;;;;;26.55;23.77;;;17.70;77.90;;;;;;5004871;28;20473;-72
2022/07/09 01:32:34;;;;;;;24.20;22.05;;;17.70;77.90;;;;;;5010024;28;20068;-72
2022/07/09 01:35:00;;;;;;;27.10;24.40;;;17.70;78.00;;;;;;5012013;28;20466;-73
2022/07/09 01:37:25;;;;;;;27.30;24.60;;;17.80;78.00;;;;;;5007969;28;20049;-72
2022/07/09 01:39:51;;;;;;;25.95;23.40;;;17.80;78.00;;;;;;4999530;28;20042;-72
2022/07/09 01:42:17;;;;;;;26.55;23.88;;;17.80;77.90;;;;;;5003383;28;20077;-72
2022/07/09 01:44:44;;;;;;;26.70;24.10;;;17.80;77.80;;;;;;5004790;28;20038;-72
2022/07/09 01:47:09;;;;;;;27.63;25.02;;;17.80;77.70;;;;;;5004766;28;20177;-72
2022/07/09 01:49:35;;;;;;;31.05;28.15;;;17.80;77.90;;;;;;5012092;28;20362;-72
2022/07/09 01:52:01;;;;;;;28.55;25.60;;;17.80;78.20;;;;;;5007662;28;20038;-73
2022/07/09 01:54:26;;;;;;;32.10;28.90;;;17.80;78.40;;;;;;5012853;28;20129;-72
2022/07/09 01:56:52;;;;;;;30.73;27.58;;;17.80;78.60;;;;;;5001771;28;20121;-72
2022/07/09 01:59:17;;;;;;;29.02;26.20;;;17.80;78.60;;;;;;5007600;28;20038;-72
2022/07/09 02:01:43;;;;;;;29.65;26.75;;;17.80;78.50;;;;;;5007696;28;20037;-73
2022/07/09 02:04:09;;;;;;;27.85;25.20;;;17.90;78.50;;;;;;5007192;28;20038;-72
2022/07/09 02:06:34;;;;;;;28.83;25.90;;;17.90;78.50;;;;;;5006944;28;20026;-72
2022/07/09 02:09:00;;;;;;;28.05;25.33;;;17.90;78.40;;;;;;5006023;28;20065;-72
2022/07/09 02:11:26;;;;;;;28.35;25.63;;;17.90;78.40;;;;;;5006792;28;20045;-72
2022/07/09 02:13:51;;;;;;;30.30;27.40;;;17.90;78.40;;;;;;5004381;28;20034;-72
2022/07/09 02:16:17;;;;;;;28.58;25.67;;;17.90;78.50;;;;;;5009268;28;20045;-72
2022/07/09 02:18:43;;;;;;;30.10;27.30;;;17.80;78.50;;;;;;5010007;28;20030;-72
2022/07/09 02:21:08;;;;;;;31.30;28.10;;;17.90;78.60;;;;;;5009557;28;20053;-73
2022/07/09 02:23:34;;;;;;;33.25;29.77;;;17.90;78.60;;;;;;5007809;28;20038;-72
2022/07/09 02:26:00;;;;;;;33.88;30.58;;;17.80;78.50;;;;;;5006586;28;20485;-72
2022/07/09 02:28:25;;;;;;;34.38;31.08;;;17.80;78.70;;;;;;5010657;28;20349;-72
2022/07/09 02:30:51;;;;;;;33.50;30.33;;;17.80;79.00;;;;;;5011132;28;20042;-72
2022/07/09 02:33:17;;;;;;;33.30;30.10;;;17.80;79.00;;;;;;5009668;28;20061;-72
2022/07/09 02:35:42;;;;;;;31.20;28.00;;;17.80;79.10;;;;;;4999636;28;20046;-72
2022/07/09 02:38:08;;;;;;;31.25;28.25;;;17.80;79.10;;;;;;5004632;28;20036;-73
2022/07/09 02:40:34;;;;;;;31.88;28.63;;;17.80;79.00;;;;;;5011889;28;20042;-72
2022/07/09 02:43:00;;;;;;;28.83;26.02;;;17.80;79.00;;;;;;5001527;28;20038;-72
2022/07/09 02:45:26;;;;;;;28.08;25.27;;;17.70;78.90;;;;;;5025720;28;20037;-72
2022/07/09 02:47:51;;;;;;;27.45;24.80;;;17.70;78.70;;;;;;4990817;28;20050;-72
2022/07/09 02:50:17;;;;;;;27.30;24.40;;;17.60;78.70;;;;;;4990969;28;20035;-73
2022/07/09 02:52:43;;;;;;;24.25;21.95;;;17.60;78.70;;;;;;5008561;28;20051;-72
2022/07/09 02:55:08;;;;;;;24.23;21.92;;;17.50;78.80;;;;;;5009438;28;20026;-72
2022/07/09 02:57:34;;;;;;;24.05;21.65;;;17.50;78.90;;;;;;5001855;28;20030;-72
2022/07/09 03:00:00;;;;;;;26.17;23.58;;;17.50;78.90;;;;;;4994370;28;20030;-72
2022/07/09 03:02:26;;;;;;;23.75;21.48;;;17.50;78.90;;;;;;5002142;28;20033;-72
2022/07/09 03:04:51;;;;;;;23.15;19.40;;;17.50;79.00;;;;;;5001893;28;20037;-72
2022/07/09 03:07:17;;;;;;;24.33;21.90;;;17.50;78.90;;;;;;5010390;28;20033;-72
2022/07/09 03:09:43;;;;;;;21.73;19.63;;;17.50;78.70;;;;;;5008107;28;20092;-72
2022/07/09 03:12:09;;;;;;;23.98;21.67;;;17.40;78.80;;;;;;5002000;28;20528;-71
2022/07/09 03:14:35;;;;;;;26.02;23.60;;;17.40;78.90;;;;;;5007266;28;20035;-72
2022/07/09 03:17:00;;;;;;;23.67;21.42;;;17.40;78.90;;;;;;4999334;28;20181;-72
2022/07/09 03:19:26;;;;;;;24.13;21.90;;;17.40;79.00;;;;;;5003428;28;20042;-73
2022/07/09 03:21:51;;;;;;;24.58;22.27;;;17.30;79.00;;;;;;5009377;28;20034;-73
2022/07/09 03:24:17;;;;;;;25.92;23.45;;;17.30;79.20;;;;;;5004799;28;20038;-73
2022/07/09 03:26:43;;;;;;;25.90;23.35;;;17.30;79.40;;;;;;4999515;28;20037;-73
2022/07/09 03:29:08;;;;;;;25.25;22.75;;;17.30;79.30;;;;;;5006325;28;20438;-73
2022/07/09 03:31:34;;;;;;;23.92;21.63;;;17.20;79.30;;;;;;4998912;28;20121;-73
2022/07/09 03:34:00;;;;;;;25.50;22.83;;;17.20;79.30;;;;;;4998688;28;20044;-73
2022/07/09 03:36:25;;;;;;;25.00;22.40;;;17.10;79.30;;;;;;5006934;28;21115;-73
2022/07/09 03:38:51;;;;;;;25.48;22.98;;;17.10;79.30;;;;;;5001889;28;20049;-73
2022/07/09 03:41:17;;;;;;;26.58;23.80;;;17.10;79.40;;;;;;5000031;28;20474;-73
2022/07/09 03:43:42;;;;;;;24.50;22.02;;;17.10;79.60;;;;;;5009462;28;20030;-72
2022/07/09 03:46:08;;;;;;;24.33;21.92;;;17.10;79.70;;;;;;5009339;28;20041;-73
2022/07/09 03:48:34;;;;;;;26.02;23.42;;;17.00;79.70;;;;;;5004480;28;20030;-71
2022/07/09 03:51:00;;;;;;;24.08;21.85;;;17.00;79.80;;;;;;5010329;28;20042;-71
2022/07/09 03:53:25;;;;;;;25.38;22.98;;;17.00;79.80;;;;;;5002412;28;20027;-72
2022/07/09 03:55:51;;;;;;;24.67;22.30;;;16.90;79.70;;;;;;5008625;28;20457;-72
2022/07/09 03:58:17;;;;;;;25.35;22.83;;;16.90;79.80;;;;;;5003287;28;20041;-72
2022/07/09 04:00:42;;;;;;;26.83;24.08;;;17.00;79.90;;;;;;5005944;28;20488;-72
2022/07/09 04:03:08;;;;;;;26.88;23.98;;;17.00;80.00;;;;;;5001923;28;20080;-73
2022/07/09 04:05:34;;;;;;;26.08;23.45;;;17.00;80.00;;;;;;4991231;28;20081;-72
2022/07/09 04:07:59;;;;;;;24.38;22.10;;;17.00;80.00;;;;;;5008556;28;20449;-72
2022/07/09 04:10:25;;;;;;;26.10;23.50;;;17.00;80.00;;;;;;5008946;28;20109;-72
2022/07/09 04:12:51;;;;;;;28.35;25.50;;;17.00;79.90;;;;;;5008675;28;20556;-72
2022/07/09 04:15:16;;;;;;;26.58;23.83;;;17.00;79.90;;;;;;4999784;28;20031;-72
2022/07/09 04:17:42;;;;;;;24.73;22.20;;;17.00;80.10;;;;;;4999917;28;20049;-72
2022/07/09 04:20:09;;;;;;;25.70;23.10;;;17.00;80.10;;;;;;5007856;28;20088;-72
2022/07/09 04:22:34;;;;;;;24.83;22.45;;;17.00;80.00;;;;;;5018931;28;20038;-72
2022/07/09 04:25:00;;;;;;;25.50;22.85;;;17.10;79.80;;;;;;5005735;28;20508;-72
2022/07/09 04:27:26;;;;;;;22.90;20.70;;;17.10;79.60;;;;;;5009216;28;20560;-72
2022/07/09 04:29:51;;;;;;;25.27;22.85;;;17.20;79.60;;;;;;5009523;28;20037;-72
2022/07/09 04:32:17;;;;;;;26.77;24.00;;;17.40;79.10;;;;;;5006986;28;20054;-72
2022/07/09 04:34:42;;;;;;;23.58;21.27;;;17.50;78.80;;;;;;4999245;28;20034;-75
2022/07/09 04:37:08;;;;;;;23.77;21.42;;;17.60;78.50;;;;;;4996581;28;20165;-75
2022/07/09 04:39:34;;;;;;;23.63;21.27;;;17.70;78.10;;;;;;5006414;28;20034;-75
2022/07/09 04:41:59;;;;;;;24.92;22.38;;;17.80;77.80;;;;;;5007151;28;20053;-75
2022/07/09 04:44:25;;;;;;;24.90;22.35;;;17.90;77.30;;;;;;5006335;28;20125;-75
2022/07/09 04:46:51;;;;;;;27.13;24.45;;;18.00;77.00;;;;;;4992054;28;20053;-75
2022/07/09 04:49:17;;;;;;;27.15;24.45;;;18.00;77.10;;;;;;5004921;28;20041;-75
2022/07/09 04:51:42;;;;;;;28.13;25.10;;;18.10;76.90;;;;;;4997176;28;20050;-75
2022/07/09 04:54:08;;;;;;;28.27;24.55;;;18.10;76.80;;;;;;5003185;28;20497;-75
2022/07/09 04:56:34;;;;;;;28.73;25.92;;;18.10;76.70;;;;;;5004407;28;20046;-75
2022/07/09 04:59:02;;;;;;;28.08;25.27;;;18.30;76.60;;;;;;5001018;28;20115;-75
2022/07/09 05:01:29;;;;;;;29.33;26.30;;;18.30;76.40;;;;;;5004400;28;20371;-75
2022/07/09 05:03:55;;;;;;;26.70;24.00;;;18.20;76.60;;;;;;5013529;28;20120;-75
2022/07/09 05:06:21;;;;;;;30.20;27.10;;;18.20;77.10;;;;;;5011446;28;23129;-75
2022/07/09 05:08:47;;;;;;;32.45;29.08;;;18.40;76.70;;;;;;5005457;28;20120;-75
2022/07/09 05:11:14;;;;;;;30.05;27.02;;;18.40;76.20;;;;;;5006344;28;20047;-75
2022/07/09 05:13:40;;;;;;;33.92;30.48;;;18.60;76.00;;;;;;5016370;28;20041;-75
2022/07/09 05:16:06;;;;;;;35.72;32.13;;;18.60;75.90;;;;;;5003724;28;20053;-75
2022/07/09 05:18:32;;;;;;;38.63;35.03;;;18.70;76.10;;;;;;5002129;28;20062;-75
2022/07/09 05:20:58;;;;;;;40.30;36.00;;;19.50;74.30;;;;;;5001067;28;20474;-75
2022/07/09 05:23:23;;;;;;;38.40;34.58;;;20.90;70.70;;;;;;5007545;28;20474;-75
2022/07/09 05:25:49;;;;;;;35.72;32.28;;;22.10;66.10;;;;;;5002882;28;20092;-75
2022/07/09 05:28:15;;;;;;;31.38;28.27;;;23.10;62.30;;;;;;5005257;28;20030;-75
2022/07/09 05:30:41;;;;;;;30.15;27.15;;;24.10;59.60;;;;;;5011390;28;20470;-75
2022/07/09 05:33:07;;;;;;;31.60;28.42;;;24.70;56.90;;;;;;5004568;28;20041;-75
2022/07/09 05:35:33;;;;;;;32.33;29.23;;;25.20;55.10;;;;;;5013608;28;20038;-75
2022/07/09 05:37:59;;;;;;;30.50;27.50;;;25.50;53.60;;;;;;5008593;28;20061;-75
2022/07/09 05:40:25;;;;;;;32.63;29.50;;;25.70;53.50;;;;;;5007920;28;20034;-75
2022/07/09 05:42:51;;;;;;;31.10;27.77;;;25.90;52.20;;;;;;5007970;28;20038;-75
2022/07/09 05:45:16;;;;;;;28.33;25.38;;;26.20;51.60;;;;;;5006410;28;20061;-75
2022/07/09 05:47:43;;;;;;;29.65;26.67;;;26.60;50.80;;;;;;5010752;28;20026;-76
2022/07/09 05:50:08;;;;;;;25.65;23.08;;;26.60;50.50;;;;;;5007880;28;20497;-75
2022/07/09 05:52:34;;;;;;;30.55;27.27;;;26.90;49.60;;;;;;5010651;28;20062;-74
2022/07/09 05:55:00;;;;;;;30.15;27.23;;;27.00;48.80;;;;;;4997249;28;20061;-74
2022/07/09 05:57:25;;;;;;;29.75;26.65;;;27.00;48.70;;;;;;5003976;28;20041;-75
2022/07/09 05:59:51;;;;;;;26.80;24.02;;;26.60;50.00;;;;;;5003302;28;20465;-76
2022/07/09 06:02:19;;;;;;;30.25;25.77;;;26.10;52.00;;;;;;5001830;28;20038;-76
2022/07/09 06:04:44;;;;;;;29.60;26.17;;;25.10;54.00;;;;;;5005011;28;20466;-75
2022/07/09 06:07:10;;;;;;;30.63;27.42;;;24.10;56.50;;;;;;4996980;28;20046;-75
2022/07/09 06:09:36;;;;;;;32.42;28.67;;;23.20;59.30;;;;;;5007920;28;20034;-75
2022/07/09 06:12:02;;;;;;;32.65;29.30;;;22.70;61.40;;;;;;5006202;28;20045;-75
2022/07/09 06:14:28;;;;;;;33.38;29.98;;;22.20;63.00;;;;;;5008329;28;20036;-75
2022/07/09 06:16:55;;;;;;;31.77;28.45;;;22.10;63.80;;;;;;5000169;28;20513;-75
2022/07/09 06:19:21;;;;;;;31.80;28.50;;;22.10;64.00;;;;;;5003586;28;20188;-75
2022/07/09 06:21:46;;;;;;;30.95;27.83;;;22.10;64.40;;;;;;5010120;28;20456;-75
2022/07/09 06:24:12;;;;;;;30.98;27.83;;;22.10;64.30;;;;;;5011402;28;20057;-76
2022/07/09 06:26:38;;;;;;;36.38;28.73;;;22.10;64.50;;;;;;5011932;28;20037;-75
2022/07/09 06:29:03;;;;;;;28.83;26.02;;;21.90;64.90;;;;;;5010609;28;20038;-75
2022/07/09 06:31:29;;;;;;;30.80;27.65;;;21.90;65.50;;;;;;5008690;28;20096;-75
2022/07/09 06:33:56;;;;;;;31.83;28.75;;;21.80;64.70;;;;;;5003512;28;20034;-75
2022/07/09 06:36:22;;;;;;;32.67;29.38;;;21.80;64.80;;;;;;5002757;28;20039;-75
2022/07/09 06:41:32;;;;;;;35.20;31.58;;;21.60;66.10;;;;;;5002619;28;20499;-75
2022/07/09 06:43:58;;;;;;;34.55;29.85;;;21.80;66.70;;;;;;4995578;28;20046;-75
2022/07/09 06:46:23;;;;;;;31.27;27.98;;;21.80;66.00;;;;;;5000706;28;20031;-75
2022/07/09 06:48:49;;;;;;;28.38;25.58;;;21.90;65.90;;;;;;5006976;28;20061;-75
2022/07/09 06:51:15;;;;;;;29.52;26.42;;;22.10;66.10;;;;;;5006128;28;20049;-75
2022/07/09 06:53:40;;;;;;;29.05;26.08;;;22.10;65.50;;;;;;5011691;28;20100;-75
2022/07/09 06:56:07;;;;;;;28.73;25.88;;;22.00;65.80;;;;;;5001339;28;20137;-75
2022/07/09 06:58:33;;;;;;;30.23;27.05;;;22.10;66.20;;;;;;4994567;28;20031;-75
2022/07/09 07:00:58;;;;;;;30.30;27.23;;;22.10;66.50;;;;;;5005344;28;20033;-75
2022/07/09 07:03:24;;;;;;;31.75;28.48;;;21.90;67.00;;;;;;5003692;28;20529;-75
2022/07/09 07:05:50;;;;;;;31.45;28.13;;;22.00;67.80;;;;;;4998475;28;20058;-75
2022/07/09 07:08:15;;;;;;;31.30;28.10;;;22.40;67.50;;;;;;5005558;28;20038;-75
2022/07/09 07:10:41;;;;;;;33.42;30.00;;;22.10;67.80;;;;;;5008609;28;20046;-75
2022/07/09 07:13:06;;;;;;;33.50;29.45;;;22.00;68.50;;;;;;5003277;28;20557;-75
2022/07/09 07:15:32;;;;;;;32.75;29.20;;;22.10;68.70;;;;;;5009889;28;20042;-75
2022/07/09 07:17:58;;;;;;;33.90;30.23;;;22.20;69.20;;;;;;5004497;28;20046;-74
2022/07/09 07:20:24;;;;;;;36.63;31.58;;;22.20;68.30;;;;;;5001761;28;20038;-75
2022/07/09 07:22:51;;;;;;;34.28;30.50;;;22.00;69.70;;;;;;5005808;28;20520;-75
2022/07/09 07:25:16;;;;;;;35.83;31.92;;;22.10;70.00;;;;;;5000508;28;20042;-75
2022/07/09 07:27:42;;;;;;;34.80;31.27;;;22.20;69.60;;;;;;5006243;28;20397;-75
2022/07/09 07:30:08;;;;;;;33.63;30.10;;;22.20;69.90;;;;;;5000847;28;20092;-75
2022/07/09 07:32:34;;;;;;;33.38;30.02;;;22.40;69.70;;;;;;4993599;28;20481;-74
2022/07/09 07:35:02;;;;;;;33.25;29.75;;;22.30;69.70;;;;;;5012140;28;20037;-75
2022/07/09 07:37:28;;;;;;;32.45;29.17;;;22.40;69.80;;;;;;5007719;28;20474;-76
2022/07/09 07:39:54;;;;;;;35.35;31.55;;;22.60;70.10;;;;;;5000043;28;20033;-77
2022/07/09 07:42:20;;;;;;;37.28;33.40;;;22.60;69.10;;;;;;5007840;28;20045;-77
2022/07/09 07:44:45;;;;;;;36.15;32.45;;;22.30;70.00;;;;;;5018869;28;20118;-76
2022/07/09 07:47:11;;;;;;;38.28;34.20;;;22.30;70.10;;;;;;5008561;28;20037;-75
2022/07/09 07:49:36;;;;;;;39.53;35.58;;;22.40;70.10;;;;;;5004458;28;20106;-75
2022/07/09 07:52:03;;;;;;;40.05;36.00;;;22.60;69.80;;;;;;5008349;28;20033;-77
2022/07/09 07:54:28;;;;;;;41.10;37.13;;;22.60;69.00;;;;;;5006961;28;20034;-76
2022/07/09 07:56:54;;;;;;;42.60;38.15;;;22.50;69.10;;;;;;5010251;28;20147;-76
2022/07/09 07:59:20;;;;;;;41.63;37.30;;;22.40;69.90;;;;;;4997814;28;20038;-76
2022/07/09 08:01:45;;;;;;;42.40;38.05;;;22.50;69.60;;;;;;4997449;28;20066;-76
2022/07/09 08:04:11;;;;;;;41.75;37.53;;;22.40;70.20;;;;;;5000893;28;20034;-76
2022/07/09 08:06:37;;;;;;;41.05;36.70;;;22.40;70.00;;;;;;5008749;28;20102;-76
2022/07/09 08:09:03;;;;;;;42.92;38.45;;;22.10;70.60;;;;;;5005127;28;20034;-76
2022/07/09 08:11:29;;;;;;;41.60;37.10;;;22.10;70.50;;;;;;5001972;28;20050;-75
2022/07/09 08:13:54;;;;;;;39.92;35.80;;;22.10;70.80;;;;;;5002310;28;20422;-77
2022/07/09 08:16:20;;;;;;;41.05;36.75;;;22.30;70.40;;;;;;4996692;28;20062;-75
2022/07/09 08:18:46;;;;;;;39.38;35.28;;;22.40;69.60;;;;;;5004632;28;20696;-75
2022/07/09 08:21:12;;;;;;;36.40;32.67;;;22.60;68.60;;;;;;4997874;28;20050;-75
2022/07/09 08:23:53;;;;;;;40.88;36.70;;;22.70;69.30;;;;;;4995906;28;20037;-75
2022/07/09 08:26:29;;;;;;;35.45;31.98;;;22.70;69.00;;;;;;5009009;28;20042;-75
2022/07/09 08:28:55;;;;;;;37.47;31.65;;;22.80;69.10;;;;;;5003081;28;20039;-75
2022/07/09 08:31:21;;;;;;;34.10;30.10;;;22.60;68.00;;;;;;5005742;28;20053;-75
2022/07/09 08:33:47;;;;;;;34.22;30.52;;;22.60;68.10;;;;;;5003001;28;20709;-74
2022/07/09 08:36:14;;;;;;;35.42;31.65;;;22.60;68.20;;;;;;5004472;28;20038;-74
2022/07/09 08:38:40;;;;;;;28.70;25.58;;;23.00;67.70;;;;;;5009403;28;20133;-75
2022/07/09 08:41:06;;;;;;;24.65;22.08;;;23.50;66.10;;;;;;5006716;28;20453;-76
2022/07/09 08:43:37;;;;;;;21.40;18.63;;;23.40;63.90;;;;;;5015034;28;20036;-75
2022/07/09 08:46:04;;;;;;;18.98;14.82;;;23.20;64.80;;;;;;5005656;28;20018;-75
2022/07/09 08:48:34;;;;;;;16.42;13.80;;;23.30;64.10;;;;;;5001451;28;20546;-76
2022/07/09 08:51:01;;;;;;;14.90;13.07;;;23.40;63.60;;;;;;5011131;28;20117;-76
2022/07/09 08:53:27;;;;;;;15.85;10.07;;;23.50;63.10;;;;;;4994815;28;20092;-76
2022/07/09 08:55:54;;;;;;;13.57;9.90;;;23.10;63.00;;;;;;4999772;28;20042;-76
2022/07/09 08:58:20;;;;;;;12.93;10.35;;;23.00;63.60;;;;;;5002825;28;20176;-75
2022/07/09 09:00:48;;;;;;;13.40;9.82;;;23.20;63.80;;;;;;4997452;28;20034;-76
2022/07/09 09:03:13;;;;;;;13.88;9.07;;;23.60;63.50;;;;;;5008089;28;20043;-74
2022/07/09 09:05:39;;;;;;;12.98;6.60;;;23.90;62.50;;;;;;5011819;28;20474;-75
2022/07/09 09:08:24;;;;;;;12.82;6.82;;;24.10;61.10;;;;;;5010721;28;20038;-75
2022/07/09 09:10:50;;;;;;;9.32;4.60;;;24.10;61.00;;;;;;5013597;28;20045;-75
2022/07/09 09:13:16;;;;;;;9.60;4.63;;;23.80;61.40;;;;;;5003586;28;20056;-75
2022/07/09 09:15:43;;;;;;;8.55;4.55;;;23.40;62.70;;;;;;5007859;28;20037;-74
2022/07/09 09:18:09;;;;;;;7.30;4.18;;;23.10;62.60;;;;;;5009595;28;20041;-76
2022/07/09 09:20:35;;;;;;;7.43;3.60;;;22.70;63.80;;;;;;5013107;28;20041;-75
2022/07/09 09:23:02;;;;;;;5.28;3.55;;;22.60;64.70;;;;;;5010706;28;20042;-76
2022/07/09 09:25:28;;;;;;;4.55;3.10;;;23.10;63.10;;;;;;5009810;28;20530;-75
2022/07/09 09:27:58;;;;;;;6.85;2.97;;;23.50;61.60;;;;;;5008587;28;20121;-75
2022/07/09 09:30:27;;;;;;;5.35;2.35;;;23.60;61.40;;;;;;5010581;28;20092;-75
2022/07/09 09:33:01;;;;;;;5.28;2.60;;;23.40;61.10;;;;;;5008982;28;20062;-75
2022/07/09 09:35:28;;;;;;;5.45;2.63;;;23.00;62.20;;;;;;5009401;28;20497;-75
2022/07/09 09:37:55;;;;;;;5.13;2.33;;;22.60;63.60;;;;;;5012171;28;20030;-76
2022/07/09 09:40:23;;;;;;;5.80;2.33;;;23.00;63.30;;;;;;5001660;28;20116;-76
2022/07/09 09:42:49;;;;;;;5.60;2.15;;;23.50;61.70;;;;;;5012916;28;20041;-76
2022/07/09 09:45:16;;;;;;;4.88;2.20;;;23.80;60.90;;;;;;5007966;28;20042;-76
2022/07/09 09:47:51;;;;;;;4.60;1.83;;;23.50;60.70;;;;;;5007601;28;20030;-76
2022/07/09 09:50:25;;;;;;;4.82;2.03;;;23.70;60.00;;;;;;5000262;28;20046;-77
2022/07/09 09:52:52;;;;;;;6.20;2.20;;;23.90;59.80;;;;;;4995738;28;20054;-75
2022/07/09 09:55:19;;;;;;;5.55;2.22;;;24.20;58.90;;;;;;5007379;28;20038;-76
2022/07/09 09:57:45;;;;;;;5.28;2.13;;;24.20;59.50;;;;;;5005835;28;20065;-75
2022/07/09 10:00:13;;;;;;;7.47;2.50;;;24.40;59.30;;;;;;5014004;28;20034;-75
2022/07/09 10:02:43;;;;;;;4.05;1.92;;;24.10;58.10;;;;;;5007303;28;20054;-75
2022/07/09 10:05:09;;;;;;;7.53;2.10;;;24.10;59.20;;;;;;5001268;28;20119;-76
2022/07/09 10:07:35;;;;;;;4.53;1.88;;;24.10;59.00;;;;;;5004003;28;20054;-76
2022/07/09 10:10:01;;;;;;;7.40;2.85;;;23.80;59.60;;;;;;5011450;28;20477;-76
2022/07/09 10:12:32;;;;;;;4.70;1.90;;;23.80;58.60;;;;;;5006148;28;20180;-74
2022/07/09 10:14:59;;;;;;;5.57;2.38;;;24.10;58.50;;;;;;4996160;28;20031;-75
2022/07/09 10:17:26;;;;;;;4.78;2.00;;;24.30;57.20;;;;;;5000246;28;20093;-77
2022/07/09 10:19:58;;;;;;;4.18;1.67;;;24.50;56.80;;;;;;5000924;28;20022;-74
2022/07/09 10:22:44;;;;;;;4.80;1.70;;;24.70;57.10;;;;;;5011151;28;20141;-75
2022/07/09 10:25:21;;;;;;;4.47;1.50;;;24.80;57.80;;;;;;4995216;28;20038;-75
2022/07/09 10:27:51;;;;;;;5.43;2.00;;;24.50;56.90;;;;;;5003149;28;20166;-76
2022/07/09 10:30:35;;;;;;;3.92;1.58;;;24.20;56.90;;;;;;5003434;28;20465;-75
2022/07/09 10:33:07;;;;;;;5.40;1.63;;;24.20;58.30;;;;;;5001387;28;20070;-78
2022/07/09 10:35:44;;;;;;;4.03;1.60;;;24.60;56.10;;;;;;4998742;28;20042;-74
2022/07/09 10:38:10;;;;;;;1.98;1.20;;;24.30;56.30;;;;;;5019169;28;20042;-75
2022/07/09 10:40:47;;;;;;;3.80;1.40;;;24.10;56.90;;;;;;5002572;28;20405;-75
2022/07/09 10:43:14;;;;;;;7.35;1.70;;;23.90;57.50;;;;;;5009154;28;20490;-75
2022/07/09 10:45:39;;;;;;;2.55;1.30;;;24.40;56.60;;;;;;5009265;28;20044;-75
2022/07/09 10:48:07;;;;;;;6.10;1.27;;;24.70;55.30;;;;;;5002418;28;20050;-75
2022/07/09 10:50:38;;;;;;;3.97;1.70;;;24.80;55.90;;;;;;5007630;28;20566;-75
2022/07/09 10:53:04;;;;;;;4.07;1.50;;;24.50;56.30;;;;;;5008064;28;20050;-75
2022/07/09 10:55:30;;;;;;;4.70;1.60;;;24.40;55.50;;;;;;4991190;28;20106;-75
2022/07/09 10:57:57;;;;;;;5.35;2.38;;;24.40;56.40;;;;;;4998263;28;20037;-75
2022/07/09 11:00:26;;;;;;;3.58;1.70;;;24.30;56.70;;;;;;5008485;28;20045;-75
2022/07/09 11:02:59;;;;;;;6.38;1.98;;;24.10;56.70;;;;;;5008213;28;20038;-76
2022/07/09 11:05:28;;;;;;;4.53;1.60;;;24.10;57.00;;;;;;5011017;28;20041;-75
2022/07/09 11:07:55;;;;;;;3.67;1.60;;;24.10;57.20;;;;;;5008619;28;20533;-75
2022/07/09 11:10:21;;;;;;;4.60;1.90;;;24.00;57.10;;;;;;5007632;28;20042;-74
2022/07/09 11:12:48;;;;;;;4.68;1.85;;;24.30;57.30;;;;;;4998571;28;20115;-74
2022/07/09 11:15:20;;;;;;;3.85;1.50;;;23.90;57.40;;;;;;4995834;28;20527;-74
2022/07/09 11:18:06;;;;;;;3.60;1.70;;;23.70;58.40;;;;;;4998659;28;20529;-75
2022/07/09 11:20:45;;;;;;;5.50;1.83;;;23.70;58.00;;;;;;5001445;28;20035;-75
2022/07/09 11:23:15;;;;;;;3.65;1.80;;;23.70;59.30;;;;;;4998576;28;20133;-75
2022/07/09 11:25:42;;;;;;;4.78;1.80;;;23.50;58.80;;;;;;4992183;28;20038;-75
2022/07/09 11:28:18;;;;;;;6.10;2.08;;;23.30;58.60;;;;;;5006612;28;20037;-75
2022/07/09 11:30:44;;;;;;;4.00;1.80;;;23.10;58.70;;;;;;5005257;28;20034;-75
2022/07/09 11:33:12;;;;;;;5.72;1.88;;;23.30;58.50;;;;;;5001602;28;20453;-75
2022/07/09 11:35:38;;;;;;;3.95;1.80;;;23.80;57.50;;;;;;5007902;28;20042;-75
2022/07/09 11:38:06;;;;;;;5.50;1.80;;;23.70;58.00;;;;;;5002533;28;20552;-76
2022/07/09 11:40:32;;;;;;;5.53;2.30;;;23.80;57.00;;;;;;5006419;28;20099;-76
2022/07/09 11:42:58;;;;;;;6.22;2.28;;;23.50;57.50;;;;;;4996045;28;20038;-76
2022/07/09 11:45:26;;;;;;;4.93;2.00;;;23.50;58.10;;;;;;5007984;28;20030;-75
2022/07/09 11:48:06;;;;;;;5.65;1.80;;;23.60;58.20;;;;;;5002002;28;20029;-76
2022/07/09 11:50:33;;;;;;;5.68;2.40;;;24.00;57.70;;;;;;5010280;28;20512;-75
2022/07/09 11:52:58;;;;;;;3.83;1.80;;;23.80;56.90;;;;;;4999963;28;20069;-75
2022/07/09 11:55:31;;;;;;;3.88;1.50;;;23.80;55.50;;;;;;5010039;28;20065;-75
2022/07/09 11:57:59;;;;;;;4.80;1.55;;;23.90;56.50;;;;;;5002119;28;20237;-75
2022/07/09 12:00:27;;;;;;;2.67;1.60;;;24.00;56.50;;;;;;5008650;28;20041;-75
2022/07/09 12:02:54;;;;;;;6.45;2.03;;;23.60;56.90;;;;;;4991621;28;20042;-75
2022/07/09 12:05:30;;;;;;;6.20;1.95;;;23.40;58.30;;;;;;4994310;28;20090;-75
2022/07/09 12:08:02;;;;;;;3.78;2.05;;;23.60;57.60;;;;;;4998296;28;20033;-75
2022/07/09 12:10:32;;;;;;;4.65;1.70;;;23.60;57.30;;;;;;4991215;28;20061;-75
2022/07/09 12:12:59;;;;;;;4.00;1.67;;;23.70;57.30;;;;;;5010029;28;20048;-75
2022/07/09 12:15:25;;;;;;;4.25;1.50;;;23.80;56.90;;;;;;4999364;28;20042;-75
2022/07/09 12:17:59;;;;;;;3.53;1.58;;;23.40;56.50;;;;;;5008320;28;20050;-75
2022/07/09 12:20:30;;;;;;;3.33;1.50;;;23.30;57.70;;;;;;5008778;28;20454;-75
2022/07/09 12:22:56;;;;;;;5.03;1.58;;;23.20;57.40;;;;;;5005092;28;20050;-75
2022/07/09 12:25:22;;;;;;;4.80;1.75;;;23.00;57.90;;;;;;4992033;28;20070;-75
2022/07/09 12:27:51;;;;;;;3.78;2.00;;;23.00;58.00;;;;;;4998070;28;20061;-75
2022/07/09 12:30:17;;;;;;;4.85;2.00;;;22.90;58.50;;;;;;5004302;28;20041;-75
2022/07/09 12:32:43;;;;;;;5.32;2.00;;;23.10;58.00;;;;;;5000297;28;20379;-75
2022/07/09 12:35:09;;;;;;;5.70;2.17;;;23.00;57.50;;;;;;5007476;28;20463;-76